Time;durP1;ratioP1;P1;durP2;ratioP2;P2;SDS_P1;SDS_P2;PMS_P1;PMS_P2;Temp;Humidity;BMP_temperature;BMP_pressure;BME280_temperature;BME280_humidity;BME280_pressure;Samples;Min_cycle;Max_cycle;Signal;HPM_P1;HPM_P2
2023/03/07 00:01:38;;;;;;;;;;;;;;;;;;4222416;28;19915;-38
2023/03/07 00:03:39;;;;;;;;;;;;;;;;;;4230291;28;19919;-37
2023/03/07 00:05:40;;;;;;;;;;;;;;;;;;4215417;28;20316;-37
2023/03/07 00:07:41;;;;;;;;;;;;;;;;;;4230162;28;19915;-39
2023/03/07 00:09:42;;;;;;;;;;;;;;;;;;4229697;28;19961;-37
2023/03/07 00:11:43;;;;;;;;;;;;;;;;;;4229800;28;19922;-38
2023/03/07 00:13:44;;;;;;;;;;;;;;;;;;4215994;28;19924;-38
2023/03/07 00:15:45;;;;;;;;;;;;;;;;;;4211731;28;19943;-39
2023/03/07 00:17:46;;;;;;;;;;;;;;;;;;4229951;28;19916;-38
2023/03/07 00:19:47;;;;;;;;;;;;;;;;;;4211465;28;19923;-38
2023/03/07 00:21:49;;;;;;;;;;;;;;;;;;4216936;28;19969;-38
2023/03/07 00:23:50;;;;;;;;;;;;;;;;;;4226437;28;20039;-38
2023/03/07 00:25:51;;;;;;;;;;;;;;;;;;4217161;28;19965;-38
2023/03/07 00:27:52;;;;;;;;;;;;;;;;;;4221201;28;19966;-37
2023/03/07 00:29:54;;;;;;;;;;;;;;;;;;4212421;28;19924;-38
2023/03/07 00:31:54;;;;;;;;;;;;;;;;;;4212958;28;19920;-38
2023/03/07 00:33:55;;;;;;;;;;;;;;;;;;4215807;28;20275;-38
2023/03/07 00:35:57;;;;;;;;;;;;;;;;;;4223320;28;19928;-38
2023/03/07 00:37:57;;;;;;;;;;;;;;;;;;4221103;28;19926;-38
2023/03/07 00:39:58;;;;;;;;;;;;;;;;;;4199421;28;19920;-38
2023/03/07 00:41:59;;;;;;;;;;;;;;;;;;4228558;28;20292;-37
2023/03/07 00:44:00;;;;;;;;;;;;;;;;;;4232239;28;19915;-38
2023/03/07 00:46:01;;;;;;;;;;;;;;;;;;4215045;28;19923;-37
2023/03/07 00:48:03;;;;;;;;;;;;;;;;;;4232965;28;20367;-38
2023/03/07 00:50:04;;;;;;;;;;;;;;;;;;4199578;28;19918;-38
2023/03/07 00:52:04;;;;;;;;;;;;;;;;;;4201680;28;19942;-38
2023/03/07 00:54:06;;;;;;;;;;;;;;;;;;4232356;28;19931;-37
2023/03/07 00:56:08;;;;;;;;;;;;;;;;;;4204573;28;19916;-37
2023/03/07 00:58:09;;;;;;;;;;;;;;;;;;4229432;28;20345;-38
2023/03/07 01:00:11;;;;;;;;;;;;;;;;;;4229547;28;19924;-37
2023/03/07 01:02:11;;;;;;;;;;;;;;;;;;4220153;28;20405;-38
2023/03/07 01:04:12;;;;;;;;;;;;;;;;;;4224510;28;19961;-38
2023/03/07 01:06:13;;;;;;;;;;;;;;;;;;4220360;28;20301;-37
2023/03/07 01:08:15;;;;;;;;;;;;;;;;;;4199274;28;19920;-37
2023/03/07 01:10:16;;;;;;;;;;;;;;;;;;4183676;28;19932;-38
2023/03/07 01:12:17;;;;;;;;;;;;;;;;;;4226363;28;20428;-37
2023/03/07 01:14:19;;;;;;;;;;;;;;;;;;4206781;28;19920;-38
2023/03/07 01:16:20;;;;;;;;;;;;;;;;;;4214386;28;19920;-38
2023/03/07 01:18:21;;;;;;;;;;;;;;;;;;4214344;28;19916;-37
2023/03/07 01:20:23;;;;;;;;;;;;;;;;;;4213759;28;19916;-37
2023/03/07 01:22:26;;;;;;;;;;;;;;;;;;4232359;28;19920;-37
2023/03/07 01:24:26;;;;;;;;;;;;;;;;;;4230798;28;19923;-37
2023/03/07 01:26:27;;;;;;;;;;;;;;;;;;4231868;28;19969;-37
2023/03/07 01:28:28;;;;;;;;;;;;;;;;;;4227909;28;19971;-39
2023/03/07 01:30:29;;;;;;;;;;;;;;;;;;4215256;28;19966;-38
2023/03/07 01:32:30;;;;;;;;;;;;;;;;;;4225684;28;20367;-37
2023/03/07 01:34:31;;;;;;;;;;;;;;;;;;4218394;28;19916;-38
2023/03/07 01:36:32;;;;;;;;;;;;;;;;;;4228856;28;19924;-37
2023/03/07 01:38:38;;;;;;;;;;;;;;;;;;4204141;28;19962;-37
2023/03/07 01:40:40;;;;;;;;;;;;;;;;;;4232073;28;19916;-38
2023/03/07 01:42:41;;;;;;;;;;;;;;;;;;4214248;28;19916;-38
2023/03/07 01:44:42;;;;;;;;;;;;;;;;;;4192022;28;19917;-38
2023/03/07 01:46:44;;;;;;;;;;;;;;;;;;4215527;28;19916;-37
2023/03/07 01:48:45;;;;;;;;;;;;;;;;;;4224949;28;19915;-37
2023/03/07 01:50:46;;;;;;;;;;;;;;;;;;4212945;28;20275;-37
2023/03/07 01:52:48;;;;;;;;;;;;;;;;;;4228090;28;19945;-38
2023/03/07 01:54:50;;;;;;;;;;;;;;;;;;4221125;28;19916;-38
2023/03/07 01:56:54;;;;;;;;;;;;;;;;;;4231846;28;19923;-37
2023/03/07 01:58:55;;;;;;;;;;;;;;;;;;4200294;28;19917;-38
2023/03/07 02:00:56;;;;;;;;;;;;;;;;;;4210558;28;19920;-37
2023/03/07 02:02:56;;;;;;;;;;;;;;;;;;4219840;28;20400;-37
2023/03/07 02:04:57;;;;;;;;;;;;;;;;;;4205749;28;20464;-38
2023/03/07 02:06:58;;;;;;;;;;;;;;;;;;4226242;28;20014;-38
2023/03/07 02:08:59;;;;;;;;;;;;;;;;;;4214684;28;19998;-37
2023/03/07 02:11:00;;;;;;;;;;;;;;;;;;4201865;28;19939;-37
2023/03/07 02:13:01;;;;;;;;;;;;;;;;;;4231384;28;19934;-37
2023/03/07 02:15:02;;;;;;;;;;;;;;;;;;4202151;28;20343;-37
2023/03/07 02:17:03;;;;;;;;;;;;;;;;;;4210655;28;19965;-37
2023/03/07 02:19:05;;;;;;;;;;;;;;;;;;4209055;28;19916;-37
2023/03/07 02:21:08;;;;;;;;;;;;;;;;;;4213306;28;19981;-37
2023/03/07 02:23:12;;;;;;;;;;;;;;;;;;4207126;28;19920;-37
2023/03/07 02:25:14;;;;;;;;;;;;;;;;;;4212678;28;20430;-38
2023/03/07 02:27:15;;;;;;;;;;;;;;;;;;4231321;28;20280;-37
2023/03/07 02:29:16;;;;;;;;;;;;;;;;;;4223283;28;19993;-37
2023/03/07 02:31:20;;;;;;;;;;;;;;;;;;4205378;28;19943;-37
2023/03/07 02:33:23;;;;;;;;;;;;;;;;;;4213183;28;20315;-37
2023/03/07 02:35:25;;;;;;;;;;;;;;;;;;4199540;28;19916;-37
2023/03/07 02:37:29;;;;;;;;;;;;;;;;;;4213048;28;20060;-37
2023/03/07 02:39:31;;;;;;;;;;;;;;;;;;4204713;28;19982;-38
2023/03/07 02:41:35;;;;;;;;;;;;;;;;;;4208502;28;19923;-37
2023/03/07 02:43:40;;;;;;;;;;;;;;;;;;4215701;28;20019;-38
2023/03/07 02:45:43;;;;;;;;;;;;;;;;;;4213031;28;19916;-39
2023/03/07 02:47:44;;;;;;;;;;;;;;;;;;4231039;28;19919;-38
2023/03/07 02:49:48;;;;;;;;;;;;;;;;;;4229080;28;19915;-38
2023/03/07 02:51:49;;;;;;;;;;;;;;;;;;4210740;28;19927;-37
2023/03/07 02:53:50;;;;;;;;;;;;;;;;;;4196136;28;19932;-38
2023/03/07 02:55:52;;;;;;;;;;;;;;;;;;4187453;28;19917;-37
2023/03/07 02:57:53;;;;;;;;;;;;;;;;;;4207067;28;19920;-38
2023/03/07 02:59:54;;;;;;;;;;;;;;;;;;4197790;28;19916;-38
2023/03/07 03:01:56;;;;;;;;;;;;;;;;;;4213937;28;20375;-38
2023/03/07 03:03:56;;;;;;;;;;;;;;;;;;4202467;28;20011;-38
2023/03/07 03:05:57;;;;;;;;;;;;;;;;;;4218790;28;19973;-38
2023/03/07 03:07:59;;;;;;;;;;;;;;;;;;4222204;28;20356;-37
2023/03/07 03:09:59;;;;;;;;;;;;;;;;;;4216868;28;19915;-37
2023/03/07 03:12:00;;;;;;;;;;;;;;;;;;4226189;28;20050;-37
2023/03/07 03:14:04;;;;;;;;;;;;;;;;;;4213891;28;19916;-37
2023/03/07 03:16:05;;;;;;;;;;;;;;;;;;4205182;28;20287;-37
2023/03/07 03:18:07;;;;;;;;;;;;;;;;;;4199754;28;19920;-37
2023/03/07 03:20:10;;;;;;;;;;;;;;;;;;4227537;28;19920;-39
2023/03/07 03:22:12;;;;;;;;;;;;;;;;;;4230409;28;20524;-38
2023/03/07 03:24:16;;;;;;;;;;;;;;;;;;4212287;28;19920;-37
2023/03/07 03:26:18;;;;;;;;;;;;;;;;;;4212740;28;19924;-38
2023/03/07 03:28:20;;;;;;;;;;;;;;;;;;4228178;28;19923;-38
2023/03/07 03:30:21;;;;;;;;;;;;;;;;;;4212120;28;19945;-38
2023/03/07 03:32:22;;;;;;;;;;;;;;;;;;4203920;28;19967;-38
2023/03/07 03:34:23;;;;;;;;;;;;;;;;;;4218376;28;19920;-38
2023/03/07 03:36:25;;;;;;;;;;;;;;;;;;4196394;28;19920;-38
2023/03/07 03:38:27;;;;;;;;;;;;;;;;;;4226082;28;19977;-38
2023/03/07 03:40:30;;;;;;;;;;;;;;;;;;4202914;28;19916;-37
2023/03/07 03:42:31;;;;;;;;;;;;;;;;;;4228974;28;19973;-38
2023/03/07 03:44:34;;;;;;;;;;;;;;;;;;4200856;28;20345;-37
2023/03/07 03:46:36;;;;;;;;;;;;;;;;;;4212028;28;19965;-37
2023/03/07 03:48:37;;;;;;;;;;;;;;;;;;4202567;28;19919;-38
2023/03/07 03:50:39;;;;;;;;;;;;;;;;;;4201819;28;19954;-37
2023/03/07 03:52:40;;;;;;;;;;;;;;;;;;4226567;28;19920;-37
2023/03/07 03:54:41;;;;;;;;;;;;;;;;;;4211556;28;19916;-37
2023/03/07 03:56:42;;;;;;;;;;;;;;;;;;4230314;28;20222;-37
2023/03/07 03:58:43;;;;;;;;;;;;;;;;;;4203192;28;19916;-37
2023/03/07 04:00:44;;;;;;;;;;;;;;;;;;4207332;28;19920;-37
2023/03/07 04:02:45;;;;;;;;;;;;;;;;;;4229643;28;20393;-37
2023/03/07 04:04:50;;;;;;;;;;;;;;;;;;4211498;28;20383;-38
2023/03/07 04:06:51;;;;;;;;;;;;;;;;;;4221989;28;19916;-38
2023/03/07 04:08:52;;;;;;;;;;;;;;;;;;4206707;28;19965;-37
2023/03/07 04:10:54;;;;;;;;;;;;;;;;;;4210822;28;19943;-37
2023/03/07 04:12:54;;;;;;;;;;;;;;;;;;4212063;28;19916;-37
2023/03/07 04:14:55;;;;;;;;;;;;;;;;;;4230104;28;19915;-37
2023/03/07 04:16:56;;;;;;;;;;;;;;;;;;4201781;28;19920;-37
2023/03/07 04:18:57;;;;;;;;;;;;;;;;;;4228760;28;20056;-38
2023/03/07 04:20:58;;;;;;;;;;;;;;;;;;4232871;28;19923;-37
2023/03/07 04:22:59;;;;;;;;;;;;;;;;;;4233285;28;19916;-37
2023/03/07 04:25:00;;;;;;;;;;;;;;;;;;4232997;28;20002;-37
2023/03/07 04:27:01;;;;;;;;;;;;;;;;;;4203041;28;19924;-37
2023/03/07 04:29:03;;;;;;;;;;;;;;;;;;4213053;28;19965;-37
2023/03/07 04:31:19;;;;;;;;;;;;;;;;;;4214908;28;20369;-38
2023/03/07 04:33:19;;;;;;;;;;;;;;;;;;4233074;28;19915;-38
2023/03/07 04:35:20;;;;;;;;;;;;;;;;;;4185059;28;19924;-38
2023/03/07 04:37:22;;;;;;;;;;;;;;;;;;4229934;28;19922;-38
2023/03/07 04:39:23;;;;;;;;;;;;;;;;;;4220859;28;19920;-38
2023/03/07 04:41:27;;;;;;;;;;;;;;;;;;4214919;28;19924;-38
2023/03/07 04:43:45;;;;;;;;;;;;;;;;;;4214585;28;20436;-38
2023/03/07 04:45:47;;;;;;;;;;;;;;;;;;4231392;28;19965;-39
2023/03/07 04:47:48;;;;;;;;;;;;;;;;;;4198197;28;19924;-38
2023/03/07 04:49:49;;;;;;;;;;;;;;;;;;4215462;28;19938;-39
2023/03/07 04:51:50;;;;;;;;;;;;;;;;;;4207528;28;19927;-38
2023/03/07 04:53:52;;;;;;;;;;;;;;;;;;4202016;28;19967;-38
2023/03/07 04:55:54;;;;;;;;;;;;;;;;;;4231532;28;19938;-38
2023/03/07 04:57:56;;;;;;;;;;;;;;;;;;4227700;28;19916;-37
2023/03/07 04:59:57;;;;;;;;;;;;;;;;;;4223141;28;19919;-37
2023/03/07 05:01:57;;;;;;;;;;;;;;;;;;4226480;28;20634;-37
2023/03/07 05:03:58;;;;;;;;;;;;;;;;;;4213809;28;19927;-38
2023/03/07 05:06:00;;;;;;;;;;;;;;;;;;4214611;28;20331;-38
2023/03/07 05:08:00;;;;;;;;;;;;;;;;;;4231442;28;19916;-38
2023/03/07 05:10:02;;;;;;;;;;;;;;;;;;4214331;28;19916;-37
2023/03/07 05:12:03;;;;;;;;;;;;;;;;;;4200784;28;19947;-38
2023/03/07 05:14:04;;;;;;;;;;;;;;;;;;4197541;28;19916;-37
2023/03/07 05:16:05;;;;;;;;;;;;;;;;;;4204031;28;20294;-37
2023/03/07 05:18:06;;;;;;;;;;;;;;;;;;4214335;28;19931;-38
2023/03/07 05:20:09;;;;;;;;;;;;;;;;;;4201344;28;20674;-38
2023/03/07 05:22:10;;;;;;;;;;;;;;;;;;4229959;28;19916;-38
2023/03/07 05:24:12;;;;;;;;;;;;;;;;;;4226818;28;19969;-37
2023/03/07 05:26:13;;;;;;;;;;;;;;;;;;4222839;28;19920;-37
2023/03/07 05:28:16;;;;;;;;;;;;;;;;;;4231309;28;20018;-37
2023/03/07 05:30:17;;;;;;;;;;;;;;;;;;4228339;28;19920;-38
2023/03/07 05:32:18;;;;;;;;;;;;;;;;;;4210791;28;19920;-38
2023/03/07 05:34:20;;;;;;;;;;;;;;;;;;4221390;28;19919;-38
2023/03/07 05:36:21;;;;;;;;;;;;;;;;;;4204373;28;19916;-38
2023/03/07 05:38:23;;;;;;;;;;;;;;;;;;4210244;28;19916;-39
2023/03/07 05:40:24;;;;;;;;;;;;;;;;;;4218170;28;19919;-38
2023/03/07 05:42:25;;;;;;;;;;;;;;;;;;4231964;28;19923;-39
2023/03/07 05:44:26;;;;;;;;;;;;;;;;;;4231937;28;20435;-38
2023/03/07 05:46:29;;;;;;;;;;;;;;;;;;4213896;28;19916;-38
2023/03/07 05:48:30;;;;;;;;;;;;;;;;;;4213454;28;20402;-37
2023/03/07 05:50:32;;;;;;;;;;;;;;;;;;4214348;28;19973;-37
2023/03/07 05:52:33;;;;;;;;;;;;;;;;;;4205048;28;19927;-39
2023/03/07 05:54:34;;;;;;;;;;;;;;;;;;4219723;28;19915;-37
2023/03/07 05:56:36;;;;;;;;;;;;;;;;;;4228910;28;19915;-38
2023/03/07 05:58:37;;;;;;;;;;;;;;;;;;4210003;28;19921;-37
2023/03/07 06:00:38;;;;;;;;;;;;;;;;;;4202895;28;19924;-38
2023/03/07 06:02:41;;;;;;;;;;;;;;;;;;4194813;28;19970;-38
2023/03/07 06:04:45;;;;;;;;;;;;;;;;;;4207827;28;19932;-38
2023/03/07 06:06:46;;;;;;;;;;;;;;;;;;4215163;28;20346;-37
2023/03/07 06:08:48;;;;;;;;;;;;;;;;;;4229571;28;19920;-37
2023/03/07 06:10:50;;;;;;;;;;;;;;;;;;4211063;28;20386;-38
2023/03/07 06:12:51;;;;;;;;;;;;;;;;;;4198071;28;19973;-38
2023/03/07 06:14:52;;;;;;;;;;;;;;;;;;4210133;28;19966;-37
2023/03/07 06:16:53;;;;;;;;;;;;;;;;;;4206114;28;20572;-37
2023/03/07 06:18:54;;;;;;;;;;;;;;;;;;4221104;28;19945;-38
2023/03/07 06:20:55;;;;;;;;;;;;;;;;;;4227899;28;20427;-38
2023/03/07 06:22:56;;;;;;;;;;;;;;;;;;4197323;28;20451;-37
2023/03/07 06:24:57;;;;;;;;;;;;;;;;;;4224588;28;19920;-38
2023/03/07 06:26:59;;;;;;;;;;;;;;;;;;4201947;28;19973;-38
2023/03/07 06:29:01;;;;;;;;;;;;;;;;;;4205366;28;19958;-38
2023/03/07 06:31:02;;;;;;;;;;;;;;;;;;4228838;28;19927;-39
2023/03/07 06:33:03;;;;;;;;;;;;;;;;;;4197544;28;20399;-38
2023/03/07 06:35:04;;;;;;;;;;;;;;;;;;4222150;28;19923;-37
2023/03/07 06:37:05;;;;;;;;;;;;;;;;;;4193961;28;20441;-38
2023/03/07 06:39:06;;;;;;;;;;;;;;;;;;4225024;28;19966;-37
2023/03/07 06:41:08;;;;;;;;;;;;;;;;;;4227257;28;20419;-37
2023/03/07 06:43:10;;;;;;;;;;;;;;;;;;4205720;28;19954;-38
2023/03/07 06:45:11;;;;;;;;;;;;;;;;;;4220969;28;20336;-42
2023/03/07 06:47:12;;;;;;;;;;;;;;;;;;4211153;28;19954;-42
2023/03/07 06:49:14;;;;;;;;;;;;;;;;;;4213906;28;19973;-41
2023/03/07 06:51:15;;;;;;;;;;;;;;;;;;4210728;28;19931;-42
2023/03/07 06:53:18;;;;;;;;;;;;;;;;;;4203057;28;20349;-42
2023/03/07 06:55:19;;;;;;;;;;;;;;;;;;4202588;28;19942;-43
2023/03/07 06:57:20;;;;;;;;;;;;;;;;;;4208715;28;19982;-41
2023/03/07 06:59:22;;;;;;;;;;;;;;;;;;4197803;28;19916;-43
2023/03/07 07:01:24;;;;;;;;;;;;;;;;;;4207767;28;19920;-41
2023/03/07 07:03:27;;;;;;;;;;;;;;;;;;4213994;28;19953;-41
2023/03/07 07:05:28;;;;;;;;;;;;;;;;;;4212405;27;19920;-41
2023/03/07 07:07:29;;;;;;;;;;;;;;;;;;4186022;28;19974;-41
2023/03/07 07:09:30;;;;;;;;;;;;;;;;;;4196672;28;19930;-42
2023/03/07 07:11:32;;;;;;;;;;;;;;;;;;4199152;28;19935;-41
2023/03/07 07:13:34;;;;;;;;;;;;;;;;;;4201847;28;20349;-43
2023/03/07 07:15:35;;;;;;;;;;;;;;;;;;4191978;28;19963;-42
2023/03/07 07:17:37;;;;;;;;;;;;;;;;;;4219828;28;19967;-42
2023/03/07 07:19:39;;;;;;;;;;;;;;;;;;4189295;28;19924;-42
2023/03/07 07:21:41;;;;;;;;;;;;;;;;;;4205395;28;19920;-42
2023/03/07 07:23:42;;;;;;;;;;;;;;;;;;4187290;28;19932;-41
2023/03/07 07:25:43;;;;;;;;;;;;;;;;;;4200538;28;20448;-41
2023/03/07 07:27:44;;;;;;;;;;;;;;;;;;4199800;28;20399;-41
2023/03/07 07:29:45;;;;;;;;;;;;;;;;;;4194497;28;20296;-41
2023/03/07 07:31:48;;;;;;;;;;;;;;;;;;4198091;28;20378;-41
2023/03/07 07:33:51;;;;;;;;;;;;;;;;;;4202737;28;19928;-41
2023/03/07 07:35:53;;;;;;;;;;;;;;;;;;4199040;28;19982;-41
2023/03/07 07:37:53;;;;;;;;;;;;;;;;;;4194313;28;20434;-40
2023/03/07 07:39:54;;;;;;;;;;;;;;;;;;4216223;28;19920;-42
2023/03/07 07:41:55;;;;;;;;;;;;;;;;;;4216964;28;20313;-42
2023/03/07 07:43:59;;;;;;;;;;;;;;;;;;4211914;28;19973;-41
2023/03/07 07:46:06;;;;;;;;;;;;;;;;;;4201050;28;20435;-41
2023/03/07 07:48:07;;;;;;;;;;;;;;;;;;4206122;28;19923;-41
2023/03/07 07:50:09;;;;;;;;;;;;;;;;;;4202554;28;19920;-41
2023/03/07 07:52:11;;;;;;;;;;;;;;;;;;4212892;28;19974;-42
2023/03/07 07:54:14;;;;;;;;;;;;;;;;;;4199945;28;19955;-41
2023/03/07 07:56:15;;;;;;;;;;;;;;;;;;4205984;28;19928;-42
2023/03/07 07:58:16;;;;;;;;;;;;;;;;;;4203013;28;19932;-41
2023/03/07 08:00:20;;;;;;;;;;;;;;;;;;4211262;28;19961;-41
2023/03/07 08:02:21;;;;;;;;;;;;;;;;;;4212276;28;19916;-42
2023/03/07 08:04:22;;;;;;;;;;;;;;;;;;4221119;28;19920;-42
2023/03/07 08:06:23;;;;;;;;;;;;;;;;;;4218161;28;20002;-42
2023/03/07 08:08:25;;;;;;;;;;;;;;;;;;4219341;28;19927;-42
2023/03/07 08:10:25;;;;;;;;;;;;;;;;;;4216050;28;19987;-42
2023/03/07 08:12:26;;;;;;;;;;;;;;;;;;4193769;28;19997;-41
2023/03/07 08:14:28;;;;;;;;;;;;;;;;;;4210566;28;20014;-42
2023/03/07 08:16:29;;;;;;;;;;;;;;;;;;4209452;28;20019;-42
2023/03/07 08:18:29;;;;;;;;;;;;;;;;;;4215237;28;19963;-42
2023/03/07 08:20:30;;;;;;;;;;;;;;;;;;4208894;28;19923;-43
2023/03/07 08:22:31;;;;;;;;;;;;;;;;;;4209944;28;19972;-42
2023/03/07 08:24:34;;;;;;;;;;;;;;;;;;4206847;28;19931;-42
2023/03/07 08:26:35;;;;;;;;;;;;;;;;;;4211496;28;19973;-40
2023/03/07 08:28:36;;;;;;;;;;;;;;;;;;4209039;28;20367;-44
2023/03/07 08:30:37;;;;;;;;;;;;;;;;;;4208628;28;19923;-43
2023/03/07 08:32:38;;;;;;;;;;;;;;;;;;4207261;28;19927;-43
2023/03/07 08:34:40;;;;;;;;;;;;;;;;;;4210707;28;19920;-43
2023/03/07 08:36:41;;;;;;;;;;;;;;;;;;4216589;28;19927;-43
2023/03/07 08:38:42;;;;;;;;;;;;;;;;;;4208833;28;19920;-45
2023/03/07 08:40:43;;;;;;;;;;;;;;;;;;4209909;28;20422;-42
2023/03/07 08:42:44;;;;;;;;;;;;;;;;;;4203256;28;19938;-43
2023/03/07 08:44:45;;;;;;;;;;;;;;;;;;4203954;28;19947;-42
2023/03/07 08:46:47;;;;;;;;;;;;;;;;;;4211465;28;20345;-41
2023/03/07 08:48:48;;;;;;;;;;;;;;;;;;4213353;28;19920;-41
2023/03/07 08:50:49;;;;;;;;;;;;;;;;;;4212158;28;20390;-43
2023/03/07 08:52:50;;;;;;;;;;;;;;;;;;4208531;28;20314;-43
2023/03/07 08:54:51;;;;;;;;;;;;;;;;;;4215244;28;19919;-42
2023/03/07 08:56:53;;;;;;;;;;;;;;;;;;4197500;28;19931;-42
2023/03/07 08:58:54;;;;;;;;;;;;;;;;;;4210221;28;20324;-42
2023/03/07 09:00:55;;;;;;;;;;;;;;;;;;4212827;28;19954;-42
2023/03/07 09:02:57;;;;;;;;;;;;;;;;;;4213844;28;20207;-41
2023/03/07 09:04:58;;;;;;;;;;;;;;;;;;4217726;28;20386;-41
2023/03/07 09:06:59;;;;;;;;;;;;;;;;;;4215756;28;20114;-44
2023/03/07 09:09:01;;;;;;;;;;;;;;;;;;4222336;27;20291;-42
2023/03/07 09:11:04;;;;;;;;;;;;;;;;;;4219470;27;19924;-41
2023/03/07 09:13:05;;;;;;;;;;;;;;;;;;4218824;27;20066;-42
2023/03/07 09:15:07;;;;;;;;;;;;;;;;;;4216215;28;19924;-43
2023/03/07 09:17:08;;;;;;;;;;;;;;;;;;4205070;28;19924;-43
2023/03/07 09:19:09;;;;;;;;;;;;;;;;;;4218195;27;20332;-43
2023/03/07 09:21:10;;;;;;;;;;;;;;;;;;4218278;28;19942;-43
2023/03/07 09:23:12;;;;;;;;;;;;;;;;;;4217150;27;19942;-43
2023/03/07 09:25:13;;;;;;;;;;;;;;;;;;4218052;28;19981;-43
2023/03/07 09:27:14;;;;;;;;;;;;;;;;;;4197755;28;19955;-44
2023/03/07 09:29:15;;;;;;;;;;;;;;;;;;4212303;28;19928;-42
2023/03/07 09:31:16;;;;;;;;;;;;;;;;;;4213905;27;19977;-42
2023/03/07 09:33:17;;;;;;;;;;;;;;;;;;4214088;28;20038;-44
2023/03/07 09:35:18;;;;;;;;;;;;;;;;;;4219077;28;19920;-43
2023/03/07 09:37:19;;;;;;;;;;;;;;;;;;4216969;28;19938;-43
2023/03/07 09:39:21;;;;;;;;;;;;;;;;;;4206379;28;19919;-42
2023/03/07 09:41:22;;;;;;;;;;;;;;;;;;4214529;27;20341;-41
2023/03/07 09:43:23;;;;;;;;;;;;;;;;;;4218043;28;20438;-40
2023/03/07 09:45:51;;;;;;;;;;;;;;;;;;4212659;28;20232;-41
2023/03/07 09:47:54;;;;;;;;;;;;;;;;;;4211071;28;19919;-40
2023/03/07 09:49:55;;;;;;;;;;;;;;;;;;4195827;28;19924;-43
2023/03/07 09:51:55;;;;;;;;;;;;;;;;;;4210973;28;19973;-41
2023/03/07 09:53:57;;;;;;;;;;;;;;;;;;4211375;28;19928;-42
2023/03/07 09:55:58;;;;;;;;;;;;;;;;;;4215813;28;20038;-41
2023/03/07 09:57:59;;;;;;;;;;;;;;;;;;4193718;28;20034;-42
2023/03/07 10:00:00;;;;;;;;;;;;;;;;;;4210942;28;19919;-42
2023/03/07 10:02:01;;;;;;;;;;;;;;;;;;4210950;28;19924;-42
2023/03/07 10:04:03;;;;;;;;;;;;;;;;;;4212489;28;19920;-41
2023/03/07 10:06:04;;;;;;;;;;;;;;;;;;4221153;28;20004;-42
2023/03/07 10:08:05;;;;;;;;;;;;;;;;;;4214430;27;19919;-43
2023/03/07 10:10:06;;;;;;;;;;;;;;;;;;4220188;28;19920;-43
2023/03/07 10:12:07;;;;;;;;;;;;;;;;;;4212048;27;20323;-42
2023/03/07 10:14:08;;;;;;;;;;;;;;;;;;4215798;27;19920;-42
2023/03/07 10:16:10;;;;;;;;;;;;;;;;;;4213532;28;20338;-42
2023/03/07 10:18:11;;;;;;;;;;;;;;;;;;4215516;27;20586;-45
2023/03/07 10:20:12;;;;;;;;;;;;;;;;;;4212365;28;19926;-43
2023/03/07 10:22:14;;;;;;;;;;;;;;;;;;4216391;27;22397;-42
2023/03/07 10:24:15;;;;;;;;;;;;;;;;;;4213005;28;19966;-42
2023/03/07 10:26:16;;;;;;;;;;;;;;;;;;4213612;28;19928;-43
2023/03/07 10:28:17;;;;;;;;;;;;;;;;;;4213998;28;20010;-42
2023/03/07 10:30:19;;;;;;;;;;;;;;;;;;4217274;28;19924;-42
2023/03/07 10:32:20;;;;;;;;;;;;;;;;;;4214852;28;19992;-44
2023/03/07 10:34:21;;;;;;;;;;;;;;;;;;4208854;28;19919;-43
2023/03/07 10:36:23;;;;;;;;;;;;;;;;;;4210885;27;19973;-42
2023/03/07 10:38:24;;;;;;;;;;;;;;;;;;4190338;28;21199;-44
2023/03/07 10:40:25;;;;;;;;;;;;;;;;;;4216673;27;20497;-43
2023/03/07 10:42:26;;;;;;;;;;;;;;;;;;4217175;27;19923;-42
2023/03/07 10:44:27;;;;;;;;;;;;;;;;;;4215020;28;19937;-42
2023/03/07 10:46:29;;;;;;;;;;;;;;;;;;4218800;28;19952;-41
2023/03/07 10:48:30;;;;;;;;;;;;;;;;;;4211423;28;19924;-42
2023/03/07 10:50:31;;;;;;;;;;;;;;;;;;4212433;27;19919;-42
2023/03/07 10:52:32;;;;;;;;;;;;;;;;;;4218716;27;19923;-41
2023/03/07 10:54:33;;;;;;;;;;;;;;;;;;4215320;28;20359;-43
2023/03/07 10:56:35;;;;;;;;;;;;;;;;;;4213152;28;19923;-42
2023/03/07 10:58:36;;;;;;;;;;;;;;;;;;4213897;27;20386;-43
2023/03/07 11:00:37;;;;;;;;;;;;;;;;;;4215764;28;19924;-42
2023/03/07 11:02:40;;;;;;;;;;;;;;;;;;4214099;28;19924;-42
2023/03/07 11:04:41;;;;;;;;;;;;;;;;;;4211425;28;19916;-42
2023/03/07 11:06:43;;;;;;;;;;;;;;;;;;4219636;27;19973;-42
2023/03/07 11:08:44;;;;;;;;;;;;;;;;;;4214151;28;19924;-41
2023/03/07 11:10:46;;;;;;;;;;;;;;;;;;4211160;28;19972;-42
2023/03/07 11:12:47;;;;;;;;;;;;;;;;;;4185960;28;19928;-43
2023/03/07 11:14:48;;;;;;;;;;;;;;;;;;4212670;28;19924;-42
2023/03/07 11:16:49;;;;;;;;;;;;;;;;;;4208634;28;19993;-41
2023/03/07 11:18:50;;;;;;;;;;;;;;;;;;4211969;28;19915;-41
2023/03/07 11:20:52;;;;;;;;;;;;;;;;;;4212867;28;19927;-42
2023/03/07 11:22:53;;;;;;;;;;;;;;;;;;4220647;28;20340;-43
2023/03/07 11:24:54;;;;;;;;;;;;;;;;;;4216158;28;19923;-42
2023/03/07 11:26:55;;;;;;;;;;;;;;;;;;4211210;28;19924;-41
2023/03/07 11:28:56;;;;;;;;;;;;;;;;;;4211673;28;20409;-42
2023/03/07 11:30:56;;;;;;;;;;;;;;;;;;4214240;28;20371;-42
2023/03/07 11:33:00;;;;;;;;;;;;;;;;;;4198429;28;20044;-42
2023/03/07 11:35:01;;;;;;;;;;;;;;;;;;4221275;28;19992;-43
2023/03/07 11:37:02;;;;;;;;;;;;;;;;;;4213262;28;20440;-43
2023/03/07 11:39:03;;;;;;;;;;;;;;;;;;4214484;28;19950;-45
2023/03/07 11:41:04;;;;;;;;;;;;;;;;;;4212304;28;19931;-43
2023/03/07 11:43:05;;;;;;;;;;;;;;;;;;4211683;28;19916;-43
2023/03/07 11:45:07;;;;;;;;;;;;;;;;;;4210044;28;19920;-45
2023/03/07 11:47:08;;;;;;;;;;;;;;;;;;4212520;27;20009;-49
2023/03/07 11:49:09;;;;;;;;;;;;;;;;;;4207366;28;19915;-46
2023/03/07 11:51:10;;;;;;;;;;;;;;;;;;4210375;28;20298;-43
2023/03/07 11:53:12;;;;;;;;;;;;;;;;;;4211035;28;20405;-42
2023/03/07 11:55:13;;;;;;;;;;;;;;;;;;4219322;28;19923;-45
2023/03/07 11:57:14;;;;;;;;;;;;;;;;;;4215089;28;19969;-43
2023/03/07 11:59:15;;;;;;;;;;;;;;;;;;4218509;28;19952;-45
2023/03/07 12:01:17;;;;;;;;;;;;;;;;;;4210465;28;20064;-44
2023/03/07 12:03:17;;;;;;;;;;;;;;;;;;4203262;28;19923;-41
2023/03/07 12:05:18;;;;;;;;;;;;;;;;;;4214540;28;20287;-44
2023/03/07 12:07:20;;;;;;;;;;;;;;;;;;4205648;28;19924;-42
2023/03/07 12:09:21;;;;;;;;;;;;;;;;;;4217229;28;19972;-42
2023/03/07 12:11:22;;;;;;;;;;;;;;;;;;4216980;28;19923;-43
2023/03/07 12:13:23;;;;;;;;;;;;;;;;;;4202062;28;19952;-42
2023/03/07 12:15:24;;;;;;;;;;;;;;;;;;4215757;28;19923;-44
2023/03/07 12:17:25;;;;;;;;;;;;;;;;;;4218580;28;19963;-43
2023/03/07 12:19:26;;;;;;;;;;;;;;;;;;4214171;28;19924;-47
2023/03/07 12:21:27;;;;;;;;;;;;;;;;;;4219800;28;20447;-45
2023/03/07 12:23:32;;;;;;;;;;;;;;;;;;4213181;28;20269;-43
2023/03/07 12:25:33;;;;;;;;;;;;;;;;;;4212322;28;19926;-44
2023/03/07 12:27:35;;;;;;;;;;;;;;;;;;4201377;28;20232;-43
2023/03/07 12:29:36;;;;;;;;;;;;;;;;;;4218315;28;19916;-43
2023/03/07 12:31:37;;;;;;;;;;;;;;;;;;4219315;28;19924;-45
2023/03/07 12:33:38;;;;;;;;;;;;;;;;;;4211484;28;20345;-42
2023/03/07 12:35:39;;;;;;;;;;;;;;;;;;4221666;28;19919;-42
2023/03/07 12:37:40;;;;;;;;;;;;;;;;;;4219257;28;19916;-42
2023/03/07 12:39:41;;;;;;;;;;;;;;;;;;4217961;28;19920;-42
2023/03/07 12:41:42;;;;;;;;;;;;;;;;;;4204831;28;20398;-39
2023/03/07 12:43:44;;;;;;;;;;;;;;;;;;4213122;28;19919;-41
2023/03/07 12:45:45;;;;;;;;;;;;;;;;;;4216655;28;19924;-41
2023/03/07 12:47:46;;;;;;;;;;;;;;;;;;4219042;28;19924;-43
2023/03/07 12:49:47;;;;;;;;;;;;;;;;;;4221015;27;19919;-42
2023/03/07 12:51:48;;;;;;;;;;;;;;;;;;4224536;27;20034;-42
2023/03/07 12:53:49;;;;;;;;;;;;;;;;;;4222195;27;20537;-44
2023/03/07 12:55:50;;;;;;;;;;;;;;;;;;4215033;27;19923;-44
2023/03/07 12:57:52;;;;;;;;;;;;;;;;;;4203374;28;19928;-43
2023/03/07 12:59:53;;;;;;;;;;;;;;;;;;4216032;28;19993;-44
2023/03/07 13:01:54;;;;;;;;;;;;;;;;;;4220340;28;19928;-44
2023/03/07 13:03:55;;;;;;;;;;;;;;;;;;4217124;28;20006;-43
2023/03/07 13:05:56;;;;;;;;;;;;;;;;;;4218582;28;19926;-43
2023/03/07 13:07:57;;;;;;;;;;;;;;;;;;4217378;28;19949;-44
2023/03/07 13:09:58;;;;;;;;;;;;;;;;;;4217246;28;19928;-47
2023/03/07 13:11:59;;;;;;;;;;;;;;;;;;4219002;28;19975;-46
2023/03/07 13:14:01;;;;;;;;;;;;;;;;;;4217417;27;19954;-46
2023/03/07 13:16:02;;;;;;;;;;;;;;;;;;4216295;28;19924;-47
2023/03/07 13:18:03;;;;;;;;;;;;;;;;;;4210944;28;19920;-48
2023/03/07 13:20:04;;;;;;;;;;;;;;;;;;4215883;27;19930;-47
2023/03/07 13:22:05;;;;;;;;;;;;;;;;;;4212574;27;19931;-50
2023/03/07 13:24:06;;;;;;;;;;;;;;;;;;4211884;28;19924;-43
2023/03/07 13:26:08;;;;;;;;;;;;;;;;;;4199462;28;20729;-47
2023/03/07 13:28:09;;;;;;;;;;;;;;;;;;4203629;28;19962;-46
2023/03/07 13:30:10;;;;;;;;;;;;;;;;;;4218360;27;19916;-47
2023/03/07 13:32:11;;;;;;;;;;;;;;;;;;4225358;27;19965;-49
2023/03/07 13:34:12;;;;;;;;;;;;;;;;;;4216292;28;20450;-50
2023/03/07 13:36:13;;;;;;;;;;;;;;;;;;4221240;27;20351;-47
2023/03/07 13:38:14;;;;;;;;;;;;;;;;;;4216578;28;20045;-48
2023/03/07 13:40:15;;;;;;;;;;;;;;;;;;4213399;28;19996;-46
2023/03/07 13:42:17;;;;;;;;;;;;;;;;;;4220581;27;20294;-50
2023/03/07 13:44:18;;;;;;;;;;;;;;;;;;4224900;27;19924;-46
2023/03/07 13:46:19;;;;;;;;;;;;;;;;;;4211843;27;19964;-42
2023/03/07 13:48:20;;;;;;;;;;;;;;;;;;4222357;28;20374;-50
2023/03/07 13:50:22;;;;;;;;;;;;;;;;;;4215096;28;19927;-47